Terminal Aerodrome Forecast
Issued by NWS Wilmington, OH

Current Version | Previous Version | Text Only | Print | Product List | Glossary Off
Versions: 1 2 3 4 5 6 7 8 9 10 11 12 13 14 15 16 17 18 19 20 21

000
FTUS41 KILN 242336
TAFCMH
TAF
KCMH 242336Z 2500/2524 09007KT P6SM VCSH OVC012
     FM250300 01003KT 5SM BR OVC008
     FM250800 33007KT 5SM BR OVC006
     FM251200 34008KT P6SM OVC009
     FM251600 34010KT P6SM OVC015
     FM252000 34010KT P6SM BKN035=

USA.gov is the U.S. government's official web portal to all federal, state and local government web resources and services.